sensor_id;sensor_type;location;lat;lon;timestamp;temperature;humidity
25951;DHT22;13748;52.240;6.002;2023-04-07T00:01:38;9.10;99.90
25951;DHT22;13748;52.240;6.002;2023-04-07T00:04:05;9.10;99.90
25951;DHT22;13748;52.240;6.002;2023-04-07T00:06:33;9.10;99.90
25951;DHT22;13748;52.240;6.002;2023-04-07T00:09:00;9.10;99.90
25951;DHT22;13748;52.240;6.002;2023-04-07T00:11:27;9.20;99.90
25951;DHT22;13748;52.240;6.002;2023-04-07T00:13:54;9.10;99.90
25951;DHT22;13748;52.240;6.002;2023-04-07T00:16:21;9.20;99.90
25951;DHT22;13748;52.240;6.002;2023-04-07T00:18:48;9.20;99.90
25951;DHT22;13748;52.240;6.002;2023-04-07T00:21:15;9.20;99.90
25951;DHT22;13748;52.240;6.002;2023-04-07T00:23:42;9.10;99.90
25951;DHT22;13748;52.240;6.002;2023-04-07T00:26:09;9.10;99.90
25951;DHT22;13748;52.240;6.002;2023-04-07T00:28:36;9.20;99.90
25951;DHT22;13748;52.240;6.002;2023-04-07T00:31:03;9.10;99.90
25951;DHT22;13748;52.240;6.002;2023-04-07T00:33:30;9.20;99.90
25951;DHT22;13748;52.240;6.002;2023-04-07T00:35:56;9.20;99.90
25951;DHT22;13748;52.240;6.002;2023-04-07T00:38:24;9.20;99.90
25951;DHT22;13748;52.240;6.002;2023-04-07T00:40:57;9.20;99.90
25951;DHT22;13748;52.240;6.002;2023-04-07T00:43:24;9.20;99.90
25951;DHT22;13748;52.240;6.002;2023-04-07T00:45:52;9.20;99.90
25951;DHT22;13748;52.240;6.002;2023-04-07T00:48:19;9.10;99.90
25951;DHT22;13748;52.240;6.002;2023-04-07T00:50:46;9.10;99.90
25951;DHT22;13748;52.240;6.002;2023-04-07T00:53:14;9.10;99.90
25951;DHT22;13748;52.240;6.002;2023-04-07T00:55:41;9.10;99.90
25951;DHT22;13748;52.240;6.002;2023-04-07T00:58:08;9.00;99.90
25951;DHT22;13748;52.240;6.002;2023-04-07T01:00:43;9.00;99.90
25951;DHT22;13748;52.240;6.002;2023-04-07T01:03:29;9.00;99.90
25951;DHT22;13748;52.240;6.002;2023-04-07T01:06:01;9.00;99.90
25951;DHT22;13748;52.240;6.002;2023-04-07T01:09:00;9.00;99.90
25951;DHT22;13748;52.240;6.002;2023-04-07T01:11:40;9.00;99.90
25951;DHT22;13748;52.240;6.002;2023-04-07T01:14:10;9.10;99.90
25951;DHT22;13748;52.240;6.002;2023-04-07T01:16:45;9.00;99.90
25951;DHT22;13748;52.240;6.002;2023-04-07T01:22:00;8.90;99.90
25951;DHT22;13748;52.240;6.002;2023-04-07T01:30:31;8.90;99.90
25951;DHT22;13748;52.240;6.002;2023-04-07T01:32:59;9.00;99.90
25951;DHT22;13748;52.240;6.002;2023-04-07T01:35:31;8.90;99.90
25951;DHT22;13748;52.240;6.002;2023-04-07T01:37:58;8.90;99.90
25951;DHT22;13748;52.240;6.002;2023-04-07T01:40:27;8.90;99.90
25951;DHT22;13748;52.240;6.002;2023-04-07T01:42:56;9.00;99.90
25951;DHT22;13748;52.240;6.002;2023-04-07T01:45:28;8.90;99.90
25951;DHT22;13748;52.240;6.002;2023-04-07T01:47:56;8.90;99.90
25951;DHT22;13748;52.240;6.002;2023-04-07T01:50:24;8.90;99.90
25951;DHT22;13748;52.240;6.002;2023-04-07T01:52:51;8.90;99.90
25951;DHT22;13748;52.240;6.002;2023-04-07T01:55:19;9.00;99.90
25951;DHT22;13748;52.240;6.002;2023-04-07T01:57:46;9.00;99.90
25951;DHT22;13748;52.240;6.002;2023-04-07T02:00:13;9.00;99.90
25951;DHT22;13748;52.240;6.002;2023-04-07T02:02:43;9.00;99.90
25951;DHT22;13748;52.240;6.002;2023-04-07T02:05:13;9.20;99.90
25951;DHT22;13748;52.240;6.002;2023-04-07T02:07:49;9.00;99.90
25951;DHT22;13748;52.240;6.002;2023-04-07T02:10:21;9.00;99.90
25951;DHT22;13748;52.240;6.002;2023-04-07T02:12:48;9.00;99.90
25951;DHT22;13748;52.240;6.002;2023-04-07T02:15:16;8.90;99.90
25951;DHT22;13748;52.240;6.002;2023-04-07T02:17:48;8.90;99.90
25951;DHT22;13748;52.240;6.002;2023-04-07T02:20:17;8.90;99.90
25951;DHT22;13748;52.240;6.002;2023-04-07T02:22:48;8.90;99.90
25951;DHT22;13748;52.240;6.002;2023-04-07T02:25:33;8.90;99.90
25951;DHT22;13748;52.240;6.002;2023-04-07T02:28:01;8.90;99.90
25951;DHT22;13748;52.240;6.002;2023-04-07T02:30:27;8.80;99.90
25951;DHT22;13748;52.240;6.002;2023-04-07T02:32:54;8.90;99.90
25951;DHT22;13748;52.240;6.002;2023-04-07T02:35:22;8.90;99.90
25951;DHT22;13748;52.240;6.002;2023-04-07T02:37:49;8.90;99.90
25951;DHT22;13748;52.240;6.002;2023-04-07T02:40:16;8.90;99.90
25951;DHT22;13748;52.240;6.002;2023-04-07T02:42:43;8.90;99.90
25951;DHT22;13748;52.240;6.002;2023-04-07T02:45:11;8.90;99.90
25951;DHT22;13748;52.240;6.002;2023-04-07T02:47:38;8.90;99.90
25951;DHT22;13748;52.240;6.002;2023-04-07T02:50:06;8.90;99.90
25951;DHT22;13748;52.240;6.002;2023-04-07T02:52:32;8.90;99.90
25951;DHT22;13748;52.240;6.002;2023-04-07T02:54:59;8.90;99.90
25951;DHT22;13748;52.240;6.002;2023-04-07T02:57:26;8.90;99.90
25951;DHT22;13748;52.240;6.002;2023-04-07T02:59:53;8.80;99.90
25951;DHT22;13748;52.240;6.002;2023-04-07T03:02:24;8.90;99.90
25951;DHT22;13748;52.240;6.002;2023-04-07T03:04:51;8.90;99.90
25951;DHT22;13748;52.240;6.002;2023-04-07T03:07:21;8.90;99.90
25951;DHT22;13748;52.240;6.002;2023-04-07T03:09:48;8.90;99.90
25951;DHT22;13748;52.240;6.002;2023-04-07T03:12:14;8.90;99.90
25951;DHT22;13748;52.240;6.002;2023-04-07T03:14:41;8.80;99.90
25951;DHT22;13748;52.240;6.002;2023-04-07T03:17:08;8.90;99.90
25951;DHT22;13748;52.240;6.002;2023-04-07T03:19:36;8.90;99.90
25951;DHT22;13748;52.240;6.002;2023-04-07T03:22:02;8.90;99.90
25951;DHT22;13748;52.240;6.002;2023-04-07T03:24:29;8.90;99.90
25951;DHT22;13748;52.240;6.002;2023-04-07T03:26:56;8.90;99.90
25951;DHT22;13748;52.240;6.002;2023-04-07T03:29:23;8.90;99.90
25951;DHT22;13748;52.240;6.002;2023-04-07T03:31:50;8.90;99.90
25951;DHT22;13748;52.240;6.002;2023-04-07T03:34:18;8.90;99.90
25951;DHT22;13748;52.240;6.002;2023-04-07T03:36:44;8.90;99.90
25951;DHT22;13748;52.240;6.002;2023-04-07T03:39:11;8.90;99.90
25951;DHT22;13748;52.240;6.002;2023-04-07T03:41:38;8.90;99.90
25951;DHT22;13748;52.240;6.002;2023-04-07T03:44:05;8.90;99.90
25951;DHT22;13748;52.240;6.002;2023-04-07T03:46:32;8.90;99.90
25951;DHT22;13748;52.240;6.002;2023-04-07T03:48:59;8.90;99.90
25951;DHT22;13748;52.240;6.002;2023-04-07T03:51:26;8.90;99.90
25951;DHT22;13748;52.240;6.002;2023-04-07T03:53:53;8.90;99.90
25951;DHT22;13748;52.240;6.002;2023-04-07T03:56:20;8.90;99.90
25951;DHT22;13748;52.240;6.002;2023-04-07T03:58:48;8.90;99.90
25951;DHT22;13748;52.240;6.002;2023-04-07T04:01:14;8.90;99.90
25951;DHT22;13748;52.240;6.002;2023-04-07T04:03:41;9.00;99.90
25951;DHT22;13748;52.240;6.002;2023-04-07T04:06:08;9.00;99.90
25951;DHT22;13748;52.240;6.002;2023-04-07T04:08:35;9.00;99.90
25951;DHT22;13748;52.240;6.002;2023-04-07T04:11:02;9.00;99.90
25951;DHT22;13748;52.240;6.002;2023-04-07T04:13:29;9.00;99.90
25951;DHT22;13748;52.240;6.002;2023-04-07T04:15:56;9.10;99.90
25951;DHT22;13748;52.240;6.002;2023-04-07T04:18:22;9.00;99.90
25951;DHT22;13748;52.240;6.002;2023-04-07T04:20:49;9.00;99.90
25951;DHT22;13748;52.240;6.002;2023-04-07T04:23:16;9.10;99.90
25951;DHT22;13748;52.240;6.002;2023-04-07T04:25:43;9.10;99.90
25951;DHT22;13748;52.240;6.002;2023-04-07T04:28:09;9.10;99.90
25951;DHT22;13748;52.240;6.002;2023-04-07T04:30:36;9.40;99.90
25951;DHT22;13748;52.240;6.002;2023-04-07T04:33:03;9.10;99.90
25951;DHT22;13748;52.240;6.002;2023-04-07T04:35:30;9.00;99.90
25951;DHT22;13748;52.240;6.002;2023-04-07T04:37:57;9.10;99.90
25951;DHT22;13748;52.240;6.002;2023-04-07T04:40:23;9.00;99.90
25951;DHT22;13748;52.240;6.002;2023-04-07T04:42:50;9.10;99.90
25951;DHT22;13748;52.240;6.002;2023-04-07T04:45:17;9.00;99.90
25951;DHT22;13748;52.240;6.002;2023-04-07T04:47:44;9.00;99.90
25951;DHT22;13748;52.240;6.002;2023-04-07T04:50:11;9.00;99.90
25951;DHT22;13748;52.240;6.002;2023-04-07T04:52:38;9.00;99.90
25951;DHT22;13748;52.240;6.002;2023-04-07T04:55:06;9.00;99.90
25951;DHT22;13748;52.240;6.002;2023-04-07T04:57:33;9.10;99.90
25951;DHT22;13748;52.240;6.002;2023-04-07T05:00:02;9.00;99.90
25951;DHT22;13748;52.240;6.002;2023-04-07T05:02:29;9.00;99.90
25951;DHT22;13748;52.240;6.002;2023-04-07T05:04:57;9.00;99.90
25951;DHT22;13748;52.240;6.002;2023-04-07T05:07:24;9.10;99.90
25951;DHT22;13748;52.240;6.002;2023-04-07T05:09:51;9.10;99.90
25951;DHT22;13748;52.240;6.002;2023-04-07T05:12:18;9.10;99.90
25951;DHT22;13748;52.240;6.002;2023-04-07T05:14:45;9.30;99.90
25951;DHT22;13748;52.240;6.002;2023-04-07T05:17:12;9.10;99.90
25951;DHT22;13748;52.240;6.002;2023-04-07T05:19:38;9.10;99.90
25951;DHT22;13748;52.240;6.002;2023-04-07T05:22:05;9.10;99.90
25951;DHT22;13748;52.240;6.002;2023-04-07T05:24:32;9.10;99.90
25951;DHT22;13748;52.240;6.002;2023-04-07T05:26:59;9.30;99.90
25951;DHT22;13748;52.240;6.002;2023-04-07T05:29:28;9.10;99.90
25951;DHT22;13748;52.240;6.002;2023-04-07T05:31:55;9.20;99.90
25951;DHT22;13748;52.240;6.002;2023-04-07T05:34:22;9.00;99.90
25951;DHT22;13748;52.240;6.002;2023-04-07T05:36:48;9.00;99.90
25951;DHT22;13748;52.240;6.002;2023-04-07T05:39:15;9.00;99.90
25951;DHT22;13748;52.240;6.002;2023-04-07T05:41:42;9.10;99.90
25951;DHT22;13748;52.240;6.002;2023-04-07T05:44:09;9.10;99.90
25951;DHT22;13748;52.240;6.002;2023-04-07T05:46:36;9.20;99.90
25951;DHT22;13748;52.240;6.002;2023-04-07T05:49:02;9.00;99.90
25951;DHT22;13748;52.240;6.002;2023-04-07T05:51:44;9.00;99.90
25951;DHT22;13748;52.240;6.002;2023-04-07T05:54:13;9.00;99.90
25951;DHT22;13748;52.240;6.002;2023-04-07T05:56:40;9.00;99.90
25951;DHT22;13748;52.240;6.002;2023-04-07T05:59:07;9.00;99.90
25951;DHT22;13748;52.240;6.002;2023-04-07T06:01:34;9.00;99.90
25951;DHT22;13748;52.240;6.002;2023-04-07T06:04:01;9.10;99.90
25951;DHT22;13748;52.240;6.002;2023-04-07T06:06:29;9.10;99.90
25951;DHT22;13748;52.240;6.002;2023-04-07T06:08:56;9.10;99.90
25951;DHT22;13748;52.240;6.002;2023-04-07T06:11:24;9.20;99.90
25951;DHT22;13748;52.240;6.002;2023-04-07T06:13:51;9.20;99.90
25951;DHT22;13748;52.240;6.002;2023-04-07T06:16:18;9.20;99.90
25951;DHT22;13748;52.240;6.002;2023-04-07T06:18:45;9.30;99.90
25951;DHT22;13748;52.240;6.002;2023-04-07T06:21:12;9.40;99.90
25951;DHT22;13748;52.240;6.002;2023-04-07T06:23:39;9.40;99.90
25951;DHT22;13748;52.240;6.002;2023-04-07T06:26:10;9.40;99.90
25951;DHT22;13748;52.240;6.002;2023-04-07T06:28:37;9.50;99.90
25951;DHT22;13748;52.240;6.002;2023-04-07T06:31:04;9.50;99.90
25951;DHT22;13748;52.240;6.002;2023-04-07T06:33:32;9.50;99.90
25951;DHT22;13748;52.240;6.002;2023-04-07T06:36:01;9.70;99.90
25951;DHT22;13748;52.240;6.002;2023-04-07T06:38:28;9.60;99.90
25951;DHT22;13748;52.240;6.002;2023-04-07T06:40:55;9.60;99.90
25951;DHT22;13748;52.240;6.002;2023-04-07T06:43:22;9.60;99.90
25951;DHT22;13748;52.240;6.002;2023-04-07T06:45:49;9.70;99.90
25951;DHT22;13748;52.240;6.002;2023-04-07T06:48:16;9.80;99.90
25951;DHT22;13748;52.240;6.002;2023-04-07T06:50:48;9.90;99.90
25951;DHT22;13748;52.240;6.002;2023-04-07T06:53:14;9.90;99.90
25951;DHT22;13748;52.240;6.002;2023-04-07T06:55:41;10.00;99.90
25951;DHT22;13748;52.240;6.002;2023-04-07T06:58:08;9.90;99.90
25951;DHT22;13748;52.240;6.002;2023-04-07T07:00:35;10.10;99.90
25951;DHT22;13748;52.240;6.002;2023-04-07T07:03:02;10.10;99.90
25951;DHT22;13748;52.240;6.002;2023-04-07T07:05:29;10.10;99.90
25951;DHT22;13748;52.240;6.002;2023-04-07T07:07:56;10.10;99.90
25951;DHT22;13748;52.240;6.002;2023-04-07T07:10:23;10.10;99.90
25951;DHT22;13748;52.240;6.002;2023-04-07T07:12:50;10.10;99.90
25951;DHT22;13748;52.240;6.002;2023-04-07T07:15:17;10.10;99.90
25951;DHT22;13748;52.240;6.002;2023-04-07T07:17:44;10.20;99.90
25951;DHT22;13748;52.240;6.002;2023-04-07T07:20:11;10.30;99.90
25951;DHT22;13748;52.240;6.002;2023-04-07T07:22:38;10.50;99.90
25951;DHT22;13748;52.240;6.002;2023-04-07T07:25:05;11.60;99.90
25951;DHT22;13748;52.240;6.002;2023-04-07T07:27:32;10.50;99.90
25951;DHT22;13748;52.240;6.002;2023-04-07T07:29:59;11.00;99.90
25951;DHT22;13748;52.240;6.002;2023-04-07T07:32:27;10.40;99.90
25951;DHT22;13748;52.240;6.002;2023-04-07T07:34:53;10.30;99.90
25951;DHT22;13748;52.240;6.002;2023-04-07T07:37:20;10.20;99.90
25951;DHT22;13748;52.240;6.002;2023-04-07T07:39:47;9.90;99.90
25951;DHT22;13748;52.240;6.002;2023-04-07T07:42:15;10.20;99.90
25951;DHT22;13748;52.240;6.002;2023-04-07T07:44:41;10.80;99.90
25951;DHT22;13748;52.240;6.002;2023-04-07T07:47:08;11.20;99.90
25951;DHT22;13748;52.240;6.002;2023-04-07T07:49:35;10.10;99.90
25951;DHT22;13748;52.240;6.002;2023-04-07T07:52:03;10.30;99.90
25951;DHT22;13748;52.240;6.002;2023-04-07T07:54:29;10.30;99.90
25951;DHT22;13748;52.240;6.002;2023-04-07T07:56:56;9.60;99.90
25951;DHT22;13748;52.240;6.002;2023-04-07T07:59:23;10.40;99.90
25951;DHT22;13748;52.240;6.002;2023-04-07T08:01:50;10.50;99.90
25951;DHT22;13748;52.240;6.002;2023-04-07T08:04:16;11.30;99.90
25951;DHT22;13748;52.240;6.002;2023-04-07T08:06:43;10.50;99.90
25951;DHT22;13748;52.240;6.002;2023-04-07T08:09:11;10.70;99.90
25951;DHT22;13748;52.240;6.002;2023-04-07T08:11:40;10.50;99.90
25951;DHT22;13748;52.240;6.002;2023-04-07T08:14:07;10.50;99.90
25951;DHT22;13748;52.240;6.002;2023-04-07T08:16:35;10.50;99.90
25951;DHT22;13748;52.240;6.002;2023-04-07T08:19:02;11.40;99.90
25951;DHT22;13748;52.240;6.002;2023-04-07T08:21:29;11.30;99.90
25951;DHT22;13748;52.240;6.002;2023-04-07T08:23:57;10.30;99.90
25951;DHT22;13748;52.240;6.002;2023-04-07T08:26:24;9.80;99.90
25951;DHT22;13748;52.240;6.002;2023-04-07T08:28:51;10.40;99.90
25951;DHT22;13748;52.240;6.002;2023-04-07T08:31:18;10.40;99.90
25951;DHT22;13748;52.240;6.002;2023-04-07T08:33:45;10.40;99.90
25951;DHT22;13748;52.240;6.002;2023-04-07T08:36:12;10.40;99.90
25951;DHT22;13748;52.240;6.002;2023-04-07T08:38:39;9.60;99.90
25951;DHT22;13748;52.240;6.002;2023-04-07T08:41:11;10.40;99.90
25951;DHT22;13748;52.240;6.002;2023-04-07T08:43:39;11.20;99.90
25951;DHT22;13748;52.240;6.002;2023-04-07T08:46:08;10.70;99.90
25951;DHT22;13748;52.240;6.002;2023-04-07T08:48:37;10.40;99.90
25951;DHT22;13748;52.240;6.002;2023-04-07T08:51:05;11.20;99.90
25951;DHT22;13748;52.240;6.002;2023-04-07T08:53:47;10.60;99.90
25951;DHT22;13748;52.240;6.002;2023-04-07T08:56:19;10.70;99.90
25951;DHT22;13748;52.240;6.002;2023-04-07T08:58:53;10.70;99.90
25951;DHT22;13748;52.240;6.002;2023-04-07T09:01:21;10.70;99.90
25951;DHT22;13748;52.240;6.002;2023-04-07T09:03:49;10.70;99.90
25951;DHT22;13748;52.240;6.002;2023-04-07T09:06:16;11.10;99.90
25951;DHT22;13748;52.240;6.002;2023-04-07T09:08:43;11.00;99.90
25951;DHT22;13748;52.240;6.002;2023-04-07T09:11:10;10.90;99.90
25951;DHT22;13748;52.240;6.002;2023-04-07T09:13:37;10.90;99.90
25951;DHT22;13748;52.240;6.002;2023-04-07T09:16:04;10.90;99.90
25951;DHT22;13748;52.240;6.002;2023-04-07T09:18:32;10.90;99.90
25951;DHT22;13748;52.240;6.002;2023-04-07T09:21:03;11.00;99.90
25951;DHT22;13748;52.240;6.002;2023-04-07T09:23:35;11.00;99.90
25951;DHT22;13748;52.240;6.002;2023-04-07T09:26:22;11.00;99.90
25951;DHT22;13748;52.240;6.002;2023-04-07T09:29:00;11.10;99.90
25951;DHT22;13748;52.240;6.002;2023-04-07T09:31:54;11.30;99.90
25951;DHT22;13748;52.240;6.002;2023-04-07T09:34:28;10.70;99.90
25951;DHT22;13748;52.240;6.002;2023-04-07T09:36:56;11.00;99.90
25951;DHT22;13748;52.240;6.002;2023-04-07T09:39:23;11.40;99.90
25951;DHT22;13748;52.240;6.002;2023-04-07T09:41:51;10.90;99.90
25951;DHT22;13748;52.240;6.002;2023-04-07T09:44:22;10.90;99.90
25951;DHT22;13748;52.240;6.002;2023-04-07T09:46:53;10.90;99.90
25951;DHT22;13748;52.240;6.002;2023-04-07T09:49:22;10.60;99.90
25951;DHT22;13748;52.240;6.002;2023-04-07T09:52:01;10.80;99.90
25951;DHT22;13748;52.240;6.002;2023-04-07T09:54:40;10.90;99.90
25951;DHT22;13748;52.240;6.002;2023-04-07T09:57:08;9.90;99.90
25951;DHT22;13748;52.240;6.002;2023-04-07T09:59:40;10.90;99.90
25951;DHT22;13748;52.240;6.002;2023-04-07T10:02:10;11.00;99.90
25951;DHT22;13748;52.240;6.002;2023-04-07T10:04:38;11.20;99.90
25951;DHT22;13748;52.240;6.002;2023-04-07T10:07:06;10.80;99.90
25951;DHT22;13748;52.240;6.002;2023-04-07T10:09:32;11.40;99.90
25951;DHT22;13748;52.240;6.002;2023-04-07T10:11:59;11.70;99.90
25951;DHT22;13748;52.240;6.002;2023-04-07T10:14:29;11.60;99.90
25951;DHT22;13748;52.240;6.002;2023-04-07T10:16:59;11.70;99.90
25951;DHT22;13748;52.240;6.002;2023-04-07T10:19:30;11.70;99.90
25951;DHT22;13748;52.240;6.002;2023-04-07T10:21:58;11.70;99.90
25951;DHT22;13748;52.240;6.002;2023-04-07T10:27:03;11.60;99.90
25951;DHT22;13748;52.240;6.002;2023-04-07T10:29:34;11.70;99.90
25951;DHT22;13748;52.240;6.002;2023-04-07T10:32:03;11.70;99.90
25951;DHT22;13748;52.240;6.002;2023-04-07T10:37:16;11.60;99.90
25951;DHT22;13748;52.240;6.002;2023-04-07T10:39:48;11.60;99.90
25951;DHT22;13748;52.240;6.002;2023-04-07T10:45:06;11.50;99.90
25951;DHT22;13748;52.240;6.002;2023-04-07T10:47:34;11.40;99.90
25951;DHT22;13748;52.240;6.002;2023-04-07T10:50:18;11.40;99.90
25951;DHT22;13748;52.240;6.002;2023-04-07T10:52:47;11.40;99.90
25951;DHT22;13748;52.240;6.002;2023-04-07T10:58:25;11.60;99.90
25951;DHT22;13748;52.240;6.002;2023-04-07T11:03:28;12.00;99.90
25951;DHT22;13748;52.240;6.002;2023-04-07T11:06:06;11.70;99.90
25951;DHT22;13748;52.240;6.002;2023-04-07T11:11:03;11.80;99.90
25951;DHT22;13748;52.240;6.002;2023-04-07T11:13:40;11.90;99.90
25951;DHT22;13748;52.240;6.002;2023-04-07T11:16:08;11.90;99.90
25951;DHT22;13748;52.240;6.002;2023-04-07T11:18:36;11.90;99.90
25951;DHT22;13748;52.240;6.002;2023-04-07T11:21:03;12.30;99.90
25951;DHT22;13748;52.240;6.002;2023-04-07T11:23:38;11.80;99.90
25951;DHT22;13748;52.240;6.002;2023-04-07T11:26:06;11.70;99.90
25951;DHT22;13748;52.240;6.002;2023-04-07T11:28:34;11.60;99.90
25951;DHT22;13748;52.240;6.002;2023-04-07T11:31:03;11.70;99.90
25951;DHT22;13748;52.240;6.002;2023-04-07T11:33:30;11.70;99.90
25951;DHT22;13748;52.240;6.002;2023-04-07T11:35:59;11.10;99.90
25951;DHT22;13748;52.240;6.002;2023-04-07T11:38:29;11.60;99.90
25951;DHT22;13748;52.240;6.002;2023-04-07T11:41:10;11.70;99.90
25951;DHT22;13748;52.240;6.002;2023-04-07T11:43:37;12.00;99.90
25951;DHT22;13748;52.240;6.002;2023-04-07T11:46:12;11.60;99.90
25951;DHT22;13748;52.240;6.002;2023-04-07T11:48:41;11.60;99.90
25951;DHT22;13748;52.240;6.002;2023-04-07T11:51:19;11.60;99.90
25951;DHT22;13748;52.240;6.002;2023-04-07T11:53:46;11.50;99.90
25951;DHT22;13748;52.240;6.002;2023-04-07T11:56:15;11.60;99.90
25951;DHT22;13748;52.240;6.002;2023-04-07T11:58:50;11.40;99.90
25951;DHT22;13748;52.240;6.002;2023-04-07T12:01:17;11.40;99.90
25951;DHT22;13748;52.240;6.002;2023-04-07T12:06:28;12.00;99.90
25951;DHT22;13748;52.240;6.002;2023-04-07T12:08:56;11.30;99.90
25951;DHT22;13748;52.240;6.002;2023-04-07T12:11:23;11.20;99.90
25951;DHT22;13748;52.240;6.002;2023-04-07T12:13:50;11.70;99.90
25951;DHT22;13748;52.240;6.002;2023-04-07T12:16:17;12.10;99.90
25951;DHT22;13748;52.240;6.002;2023-04-07T12:18:44;11.20;99.90
25951;DHT22;13748;52.240;6.002;2023-04-07T12:21:11;12.00;99.90
25951;DHT22;13748;52.240;6.002;2023-04-07T12:23:38;12.00;99.90
25951;DHT22;13748;52.240;6.002;2023-04-07T12:26:05;11.60;99.90
25951;DHT22;13748;52.240;6.002;2023-04-07T12:28:32;11.70;99.90
25951;DHT22;13748;52.240;6.002;2023-04-07T12:30:59;11.40;99.90
25951;DHT22;13748;52.240;6.002;2023-04-07T12:33:25;11.80;99.90
25951;DHT22;13748;52.240;6.002;2023-04-07T12:35:52;11.90;99.90
25951;DHT22;13748;52.240;6.002;2023-04-07T12:38:19;12.00;99.90
25951;DHT22;13748;52.240;6.002;2023-04-07T12:40:46;12.10;99.90
25951;DHT22;13748;52.240;6.002;2023-04-07T12:43:13;12.20;99.90
25951;DHT22;13748;52.240;6.002;2023-04-07T12:45:41;12.10;99.90
25951;DHT22;13748;52.240;6.002;2023-04-07T12:48:08;12.10;99.90
25951;DHT22;13748;52.240;6.002;2023-04-07T12:50:35;12.00;99.90
25951;DHT22;13748;52.240;6.002;2023-04-07T12:53:03;12.20;99.90
25951;DHT22;13748;52.240;6.002;2023-04-07T12:55:31;11.80;99.90
25951;DHT22;13748;52.240;6.002;2023-04-07T12:57:59;11.80;99.90
25951;DHT22;13748;52.240;6.002;2023-04-07T13:00:26;11.80;99.90
25951;DHT22;13748;52.240;6.002;2023-04-07T13:02:53;11.80;99.90
25951;DHT22;13748;52.240;6.002;2023-04-07T13:05:20;11.70;99.90
25951;DHT22;13748;52.240;6.002;2023-04-07T13:07:47;11.90;99.90
25951;DHT22;13748;52.240;6.002;2023-04-07T13:10:15;12.00;99.90
25951;DHT22;13748;52.240;6.002;2023-04-07T13:12:42;12.10;99.90
25951;DHT22;13748;52.240;6.002;2023-04-07T13:15:09;12.00;99.90
25951;DHT22;13748;52.240;6.002;2023-04-07T13:17:36;12.10;99.90
25951;DHT22;13748;52.240;6.002;2023-04-07T13:20:05;12.20;99.90
25951;DHT22;13748;52.240;6.002;2023-04-07T13:22:32;12.20;99.90
25951;DHT22;13748;52.240;6.002;2023-04-07T13:25:01;12.20;99.90
25951;DHT22;13748;52.240;6.002;2023-04-07T13:27:28;12.20;99.90
25951;DHT22;13748;52.240;6.002;2023-04-07T13:29:55;12.20;99.90
25951;DHT22;13748;52.240;6.002;2023-04-07T13:32:22;12.10;99.90
25951;DHT22;13748;52.240;6.002;2023-04-07T13:34:49;12.10;99.90
25951;DHT22;13748;52.240;6.002;2023-04-07T13:37:16;12.10;99.90
25951;DHT22;13748;52.240;6.002;2023-04-07T13:39:45;12.20;99.90
25951;DHT22;13748;52.240;6.002;2023-04-07T13:42:12;12.30;99.90
25951;DHT22;13748;52.240;6.002;2023-04-07T13:44:42;12.60;99.90
25951;DHT22;13748;52.240;6.002;2023-04-07T13:47:13;12.50;99.90
25951;DHT22;13748;52.240;6.002;2023-04-07T13:49:46;12.40;99.90
25951;DHT22;13748;52.240;6.002;2023-04-07T13:52:13;12.70;99.90
25951;DHT22;13748;52.240;6.002;2023-04-07T13:54:41;12.40;99.90
25951;DHT22;13748;52.240;6.002;2023-04-07T13:57:07;12.40;99.90
25951;DHT22;13748;52.240;6.002;2023-04-07T13:59:34;12.30;99.90
25951;DHT22;13748;52.240;6.002;2023-04-07T14:02:01;12.40;99.90
25951;DHT22;13748;52.240;6.002;2023-04-07T14:04:28;12.30;99.90
25951;DHT22;13748;52.240;6.002;2023-04-07T14:06:55;12.50;99.90
25951;DHT22;13748;52.240;6.002;2023-04-07T14:09:22;12.20;99.90
25951;DHT22;13748;52.240;6.002;2023-04-07T14:11:48;12.00;99.90
25951;DHT22;13748;52.240;6.002;2023-04-07T14:14:15;11.90;99.90
25951;DHT22;13748;52.240;6.002;2023-04-07T14:16:42;11.80;99.90
25951;DHT22;13748;52.240;6.002;2023-04-07T14:19:09;11.70;99.90
25951;DHT22;13748;52.240;6.002;2023-04-07T14:21:37;11.70;99.90
25951;DHT22;13748;52.240;6.002;2023-04-07T14:24:03;11.70;99.90
25951;DHT22;13748;52.240;6.002;2023-04-07T14:26:30;11.60;99.90
25951;DHT22;13748;52.240;6.002;2023-04-07T14:28:57;11.50;99.90
25951;DHT22;13748;52.240;6.002;2023-04-07T14:31:24;11.60;99.90
25951;DHT22;13748;52.240;6.002;2023-04-07T14:33:51;11.60;99.90
25951;DHT22;13748;52.240;6.002;2023-04-07T14:36:18;11.50;99.90
25951;DHT22;13748;52.240;6.002;2023-04-07T14:38:45;11.60;99.90
25951;DHT22;13748;52.240;6.002;2023-04-07T14:41:12;11.50;99.90
25951;DHT22;13748;52.240;6.002;2023-04-07T14:43:38;11.60;99.90
25951;DHT22;13748;52.240;6.002;2023-04-07T14:46:06;11.60;99.90
25951;DHT22;13748;52.240;6.002;2023-04-07T14:48:33;11.50;99.90
25951;DHT22;13748;52.240;6.002;2023-04-07T14:51:00;11.10;99.90
25951;DHT22;13748;52.240;6.002;2023-04-07T14:53:35;11.40;99.90
25951;DHT22;13748;52.240;6.002;2023-04-07T14:56:05;11.30;99.90
25951;DHT22;13748;52.240;6.002;2023-04-07T14:58:33;11.30;99.90
25951;DHT22;13748;52.240;6.002;2023-04-07T15:01:06;11.20;99.90
25951;DHT22;13748;52.240;6.002;2023-04-07T15:03:33;11.20;99.90
25951;DHT22;13748;52.240;6.002;2023-04-07T15:06:07;11.40;99.90
25951;DHT22;13748;52.240;6.002;2023-04-07T15:08:35;11.10;99.90
25951;DHT22;13748;52.240;6.002;2023-04-07T15:11:08;11.20;99.90
25951;DHT22;13748;52.240;6.002;2023-04-07T15:13:35;11.00;99.90
25951;DHT22;13748;52.240;6.002;2023-04-07T15:16:10;11.00;99.90
25951;DHT22;13748;52.240;6.002;2023-04-07T15:18:39;11.00;99.90
25951;DHT22;13748;52.240;6.002;2023-04-07T15:21:10;11.00;99.90
25951;DHT22;13748;52.240;6.002;2023-04-07T15:23:38;10.90;99.90
25951;DHT22;13748;52.240;6.002;2023-04-07T15:26:07;10.90;99.90
25951;DHT22;13748;52.240;6.002;2023-04-07T15:28:35;10.80;99.90
25951;DHT22;13748;52.240;6.002;2023-04-07T15:31:02;10.80;99.90
25951;DHT22;13748;52.240;6.002;2023-04-07T15:33:29;10.80;99.90
25951;DHT22;13748;52.240;6.002;2023-04-07T15:35:56;10.80;99.90
25951;DHT22;13748;52.240;6.002;2023-04-07T15:38:23;10.80;99.90
25951;DHT22;13748;52.240;6.002;2023-04-07T15:40:50;10.80;99.90
25951;DHT22;13748;52.240;6.002;2023-04-07T15:43:17;10.90;99.90
25951;DHT22;13748;52.240;6.002;2023-04-07T15:45:43;11.00;99.90
25951;DHT22;13748;52.240;6.002;2023-04-07T15:48:11;10.90;99.90
25951;DHT22;13748;52.240;6.002;2023-04-07T15:50:38;10.90;99.90
25951;DHT22;13748;52.240;6.002;2023-04-07T15:53:06;10.80;99.90
25951;DHT22;13748;52.240;6.002;2023-04-07T15:55:34;10.80;99.90
25951;DHT22;13748;52.240;6.002;2023-04-07T15:58:02;10.80;99.90
25951;DHT22;13748;52.240;6.002;2023-04-07T16:00:32;10.80;99.90
25951;DHT22;13748;52.240;6.002;2023-04-07T16:03:00;10.80;99.90
25951;DHT22;13748;52.240;6.002;2023-04-07T16:05:28;10.90;99.90
25951;DHT22;13748;52.240;6.002;2023-04-07T16:07:55;10.40;99.90
25951;DHT22;13748;52.240;6.002;2023-04-07T16:10:22;11.20;99.90
25951;DHT22;13748;52.240;6.002;2023-04-07T16:12:49;11.20;99.90